Time;durP1;ratioP1;P1;durP2;ratioP2;P2;SDS_P1;SDS_P2;PMS_P1;PMS_P2;Temp;Humidity;BMP_temperature;BMP_pressure;BME280_temperature;BME280_humidity;BME280_pressure;Samples;Min_cycle;Max_cycle;Signal;HPM_P1;HPM_P2
2023/10/24 00:00:01;;;;;;;31.13;22.17;;;10.30;99.90;;;;;;7380636;19;20809;-66
2023/10/24 00:02:27;;;;;;;30.35;22.80;;;10.40;99.90;;;;;;7380753;19;20376;-66
2023/10/24 00:04:53;;;;;;;30.02;22.10;;;10.40;99.90;;;;;;7378039;19;20466;-66
2023/10/24 00:07:20;;;;;;;31.02;19.20;;;10.40;99.90;;;;;;7382703;19;20018;-65
2023/10/24 00:09:47;;;;;;;29.27;20.73;;;10.30;99.90;;;;;;7380161;19;20096;-66
2023/10/24 00:12:13;;;;;;;33.38;22.05;;;10.40;99.90;;;;;;7377943;19;20014;-66
2023/10/24 00:14:39;;;;;;;31.73;22.52;;;10.40;99.90;;;;;;7380094;19;20019;-65
2023/10/24 00:17:05;;;;;;;30.52;20.25;;;10.40;99.90;;;;;;7380559;19;20021;-66
2023/10/24 00:19:31;;;;;;;38.65;24.02;;;10.40;99.90;;;;;;7377147;19;20029;-66
2023/10/24 00:21:58;;;;;;;39.50;25.45;;;10.40;99.90;;;;;;7377818;19;20019;-66
2023/10/24 00:24:25;;;;;;;33.38;21.90;;;10.40;99.90;;;;;;7377531;19;20014;-66
2023/10/24 00:26:52;;;;;;;33.67;21.35;;;10.40;99.90;;;;;;7378094;19;20674;-66
2023/10/24 00:29:18;;;;;;;36.63;23.38;;;10.30;99.90;;;;;;7377135;19;20014;-66
2023/10/24 00:31:44;;;;;;;33.53;21.48;;;10.40;99.90;;;;;;7377750;19;20023;-66
2023/10/24 00:34:12;;;;;;;35.55;23.90;;;10.40;99.90;;;;;;7376933;19;20680;-66
2023/10/24 00:36:40;;;;;;;32.75;18.05;;;10.40;99.90;;;;;;7370764;19;20036;-66
2023/10/24 00:39:07;;;;;;;33.05;22.10;;;10.40;99.90;;;;;;7370966;19;20018;-66
2023/10/24 00:41:34;;;;;;;36.42;22.73;;;10.40;99.90;;;;;;7378078;19;20106;-66
2023/10/24 00:44:00;;;;;;;37.20;24.75;;;10.40;99.90;;;;;;7375481;19;20113;-64
2023/10/24 00:46:28;;;;;;;43.40;25.83;;;10.40;99.90;;;;;;7376550;19;20014;-64
2023/10/24 00:48:55;;;;;;;43.55;27.27;;;10.40;99.90;;;;;;7375393;19;20021;-64
2023/10/24 00:51:24;;;;;;;33.35;21.23;;;10.40;99.90;;;;;;7373041;19;20040;-63
2023/10/24 00:53:50;;;;;;;31.88;19.63;;;10.40;99.90;;;;;;7378606;19;20026;-63
2023/10/24 00:56:17;;;;;;;35.53;22.63;;;10.40;99.90;;;;;;7378551;19;20634;-63
2023/10/24 00:58:44;;;;;;;34.08;18.90;;;10.40;99.90;;;;;;7377404;19;20035;-64
2023/10/24 01:01:13;;;;;;;34.63;21.35;;;10.40;99.90;;;;;;7375418;19;20479;-63
2023/10/24 01:03:40;;;;;;;45.90;25.52;;;10.40;99.90;;;;;;7376256;19;20019;-63
2023/10/24 01:06:07;;;;;;;45.25;27.02;;;10.40;99.90;;;;;;7377035;19;20042;-64
2023/10/24 01:08:33;;;;;;;42.03;26.23;;;10.40;99.90;;;;;;7379448;19;20019;-66
2023/10/24 01:11:00;;;;;;;36.40;21.83;;;10.50;99.90;;;;;;7377566;19;20033;-63
2023/10/24 01:13:28;;;;;;;42.85;24.13;;;10.40;99.90;;;;;;7376587;19;20022;-64
2023/10/24 01:15:55;;;;;;;35.67;23.75;;;10.40;99.90;;;;;;7376555;19;20093;-64
2023/10/24 01:18:21;;;;;;;39.33;24.48;;;10.50;99.90;;;;;;7376564;19;20478;-64
2023/10/24 01:20:47;;;;;;;41.78;24.17;;;10.50;99.90;;;;;;7375665;19;20094;-64
2023/10/24 01:23:14;;;;;;;38.78;22.75;;;10.50;99.90;;;;;;7376174;19;20015;-64
2023/10/24 01:25:41;;;;;;;36.05;23.10;;;10.50;99.90;;;;;;7378606;19;20022;-64
2023/10/24 01:28:08;;;;;;;37.47;24.27;;;10.50;99.90;;;;;;7375791;19;20023;-64
2023/10/24 01:30:38;;;;;;;29.08;17.35;;;10.50;99.90;;;;;;7377935;19;20019;-64
2023/10/24 01:33:04;;;;;;;37.00;24.13;;;10.50;99.90;;;;;;7376550;19;20043;-64
2023/10/24 01:35:34;;;;;;;35.95;22.52;;;10.60;99.90;;;;;;7376626;19;20019;-64
2023/10/24 01:38:01;;;;;;;32.00;18.17;;;10.60;99.90;;;;;;7375274;19;20056;-63
2023/10/24 01:40:27;;;;;;;43.40;24.35;;;10.60;99.90;;;;;;7375375;19;20525;-64
2023/10/24 01:42:53;;;;;;;44.15;25.77;;;10.60;99.90;;;;;;7374601;19;20018;-64
2023/10/24 01:45:20;;;;;;;35.95;22.85;;;10.60;99.90;;;;;;7376282;19;20105;-67
2023/10/24 01:47:46;;;;;;;34.85;21.75;;;10.60;99.90;;;;;;7375420;19;20500;-66
2023/10/24 01:50:12;;;;;;;34.17;21.67;;;10.60;99.90;;;;;;7375011;19;20817;-67
2023/10/24 01:52:38;;;;;;;24.25;15.23;;;10.70;99.90;;;;;;7376858;19;20019;-67
2023/10/24 01:55:06;;;;;;;33.22;22.35;;;10.70;99.90;;;;;;7374245;19;20495;-64
2023/10/24 01:57:35;;;;;;;35.15;18.83;;;10.70;99.90;;;;;;7374607;19;20078;-64
2023/10/24 02:00:03;;;;;;;34.85;20.63;;;10.70;99.90;;;;;;7373817;19;20022;-64
2023/10/24 02:02:38;;;;;;;30.42;16.50;;;10.70;99.90;;;;;;7374172;19;20025;-64
2023/10/24 02:05:05;;;;;;;32.17;21.35;;;10.70;99.90;;;;;;7373598;19;20110;-64
2023/10/24 02:07:31;;;;;;;30.13;17.65;;;10.70;99.90;;;;;;7375360;19;20256;-67
2023/10/24 02:09:57;;;;;;;34.25;22.13;;;10.80;99.90;;;;;;7375534;19;20052;-67
2023/10/24 02:12:24;;;;;;;33.53;20.15;;;10.70;99.90;;;;;;7375408;19;20027;-67
2023/10/24 02:14:53;;;;;;;31.10;20.15;;;10.80;99.90;;;;;;7376464;19;20061;-67
2023/10/24 02:17:20;;;;;;;33.67;20.05;;;10.80;99.90;;;;;;7375523;19;20050;-67
2023/10/24 02:19:46;;;;;;;36.78;21.60;;;10.80;99.90;;;;;;7375024;19;20019;-67
2023/10/24 02:22:12;;;;;;;33.08;21.60;;;10.80;99.90;;;;;;7372335;19;20498;-67
2023/10/24 02:24:39;;;;;;;34.33;20.02;;;10.80;99.90;;;;;;7373544;19;20376;-67
2023/10/24 02:27:05;;;;;;;33.75;21.08;;;10.80;99.90;;;;;;7375032;19;20879;-64
2023/10/24 02:29:35;;;;;;;35.40;21.20;;;10.80;99.90;;;;;;7374707;19;20022;-64
2023/10/24 02:32:02;;;;;;;29.50;19.27;;;10.80;99.90;;;;;;7372592;19;20010;-64
2023/10/24 02:34:29;;;;;;;33.55;21.35;;;10.80;99.90;;;;;;7374136;19;20014;-65
2023/10/24 02:36:55;;;;;;;35.72;20.05;;;10.80;99.90;;;;;;7374364;19;20007;-64
2023/10/24 02:39:21;;;;;;;34.63;22.25;;;10.80;99.90;;;;;;7372229;19;20022;-64
2023/10/24 02:41:48;;;;;;;35.60;21.58;;;10.90;99.90;;;;;;7373608;19;20116;-64
2023/10/24 02:44:14;;;;;;;36.90;23.20;;;10.90;99.90;;;;;;7370883;19;20034;-67
2023/10/24 02:46:40;;;;;;;42.17;23.65;;;10.90;99.90;;;;;;7375797;19;20035;-67
2023/10/24 02:49:06;;;;;;;35.53;23.48;;;10.90;99.90;;;;;;7374783;19;20027;-67
2023/10/24 02:51:33;;;;;;;35.08;22.70;;;10.90;99.90;;;;;;7373676;19;20022;-67
2023/10/24 02:53:59;;;;;;;35.50;23.23;;;10.90;99.90;;;;;;7372293;19;20025;-64
2023/10/24 02:56:25;;;;;;;40.00;23.98;;;10.90;99.90;;;;;;7375624;19;20078;-67
2023/10/24 02:58:52;;;;;;;43.00;26.27;;;10.90;99.90;;;;;;7375012;19;20619;-67
2023/10/24 03:01:19;;;;;;;39.83;24.92;;;10.90;99.90;;;;;;7370625;19;20014;-67
2023/10/24 03:03:46;;;;;;;38.53;24.70;;;10.90;99.90;;;;;;7369959;19;20023;-68
2023/10/24 03:06:15;;;;;;;40.47;24.30;;;10.90;99.90;;;;;;7372735;19;20015;-67
2023/10/24 03:08:42;;;;;;;41.75;26.30;;;10.90;99.90;;;;;;7373000;19;20715;-65
2023/10/24 03:11:08;;;;;;;45.72;28.23;;;10.90;99.90;;;;;;7370547;19;20630;-65
2023/10/24 03:13:36;;;;;;;42.10;26.05;;;10.90;99.90;;;;;;7373505;19;20035;-64
2023/10/24 03:16:06;;;;;;;41.13;25.80;;;10.90;99.90;;;;;;7370671;19;20125;-64
2023/10/24 03:18:33;;;;;;;35.30;24.88;;;10.90;99.90;;;;;;7376983;19;20021;-64
2023/10/24 03:21:02;;;;;;;46.92;28.60;;;10.90;99.90;;;;;;7379692;19;20022;-64
2023/10/24 03:23:29;;;;;;;45.72;28.20;;;11.00;99.90;;;;;;7380487;19;20048;-64
2023/10/24 03:25:55;;;;;;;41.95;28.10;;;11.00;99.90;;;;;;7381051;19;20070;-64
2023/10/24 03:28:21;;;;;;;45.20;27.52;;;11.00;99.90;;;;;;7381115;19;20023;-64
2023/10/24 03:30:50;;;;;;;39.08;25.60;;;11.00;99.90;;;;;;7382808;19;20074;-67
2023/10/24 03:33:19;;;;;;;48.80;28.70;;;11.00;99.90;;;;;;7380610;19;20583;-64
2023/10/24 03:35:45;;;;;;;51.83;29.63;;;11.00;99.90;;;;;;7382560;19;20074;-64
2023/10/24 03:38:12;;;;;;;52.65;31.25;;;11.00;99.90;;;;;;7381702;19;20015;-64
2023/10/24 03:40:38;;;;;;;49.63;29.73;;;11.00;99.90;;;;;;7379026;19;20015;-67
2023/10/24 03:43:05;;;;;;;51.10;28.98;;;11.00;99.90;;;;;;7382482;19;20018;-67
2023/10/24 03:45:31;;;;;;;47.05;29.17;;;11.00;99.90;;;;;;7381246;19;20019;-67
2023/10/24 03:47:57;;;;;;;48.15;30.17;;;11.10;99.90;;;;;;7383836;19;20390;-67
2023/10/24 03:50:23;;;;;;;53.45;32.15;;;11.10;99.90;;;;;;7378731;19;20069;-67
2023/10/24 03:52:50;;;;;;;64.20;32.90;;;11.10;99.90;;;;;;7379792;19;20039;-68
2023/10/24 03:55:16;;;;;;;62.42;32.72;;;11.10;99.90;;;;;;7377458;19;20099;-67
2023/10/24 03:57:42;;;;;;;70.60;34.65;;;11.10;99.90;;;;;;7378957;19;20030;-67
2023/10/24 04:00:08;;;;;;;56.58;32.63;;;11.10;99.90;;;;;;7376604;19;20057;-68
2023/10/24 04:02:39;;;;;;;62.05;33.90;;;11.10;99.90;;;;;;7374126;19;20093;-68
2023/10/24 04:05:06;;;;;;;50.00;31.88;;;11.10;99.90;;;;;;7376458;19;20083;-67
2023/10/24 04:07:33;;;;;;;53.03;34.40;;;11.20;99.90;;;;;;7379991;19;20373;-68
2023/10/24 04:09:59;;;;;;;54.65;33.70;;;11.20;99.90;;;;;;7376151;19;20028;-68
2023/10/24 04:12:25;;;;;;;57.92;33.75;;;11.20;99.90;;;;;;7380562;19;20098;-68
2023/10/24 04:14:52;;;;;;;42.80;31.55;;;11.20;99.90;;;;;;7375611;19;20022;-68
2023/10/24 04:17:18;;;;;;;45.28;32.70;;;11.20;99.90;;;;;;7378575;19;20043;-64
2023/10/24 04:19:47;;;;;;;52.17;33.45;;;11.30;99.90;;;;;;7378886;19;20048;-64
2023/10/24 04:22:14;;;;;;;49.70;32.35;;;11.30;99.90;;;;;;7376114;19;20019;-64
2023/10/24 04:24:40;;;;;;;44.03;31.10;;;11.30;99.90;;;;;;7375587;19;20078;-64
2023/10/24 04:27:08;;;;;;;43.85;29.75;;;11.30;99.90;;;;;;7375560;19;20015;-64
2023/10/24 04:29:34;;;;;;;44.92;31.35;;;11.30;99.90;;;;;;7376098;19;20010;-64
2023/10/24 04:32:00;;;;;;;41.83;30.73;;;11.30;99.90;;;;;;7379342;19;20036;-67
2023/10/24 04:34:27;;;;;;;39.60;29.33;;;11.30;99.90;;;;;;7376753;19;20023;-67
2023/10/24 04:36:53;;;;;;;46.97;31.35;;;11.30;99.90;;;;;;7379255;19;20030;-64
2023/10/24 04:39:20;;;;;;;36.80;27.83;;;11.30;99.90;;;;;;7372484;19;20011;-64
2023/10/24 04:41:52;;;;;;;37.00;28.70;;;11.30;99.90;;;;;;7377319;19;20018;-64
2023/10/24 04:44:19;;;;;;;34.28;28.45;;;11.30;99.90;;;;;;7375270;19;20019;-60
2023/10/24 04:46:46;;;;;;;38.83;27.67;;;11.30;99.90;;;;;;7372217;19;20030;-61
2023/10/24 04:49:13;;;;;;;32.20;26.25;;;11.40;99.90;;;;;;7374362;19;20034;-67
2023/10/24 04:51:40;;;;;;;29.00;22.63;;;11.40;99.90;;;;;;7373101;19;20025;-67
2023/10/24 04:54:06;;;;;;;26.73;23.80;;;11.40;99.90;;;;;;7371002;19;20026;-60
2023/10/24 04:56:33;;;;;;;29.02;24.77;;;11.40;99.90;;;;;;7374878;19;20043;-60
2023/10/24 04:58:59;;;;;;;27.75;23.20;;;11.40;99.90;;;;;;7374019;19;20029;-61
2023/10/24 05:01:25;;;;;;;23.85;20.98;;;11.40;99.90;;;;;;7374060;19;20025;-61
2023/10/24 05:03:51;;;;;;;23.95;20.92;;;11.40;99.90;;;;;;7374704;19;20038;-61
2023/10/24 05:06:17;;;;;;;23.23;20.00;;;11.40;99.90;;;;;;7374509;19;20028;-61
2023/10/24 05:08:44;;;;;;;21.58;18.98;;;11.40;99.90;;;;;;7375622;19;20751;-61
2023/10/24 05:11:10;;;;;;;22.05;19.02;;;11.40;99.90;;;;;;7373756;19;20770;-61
2023/10/24 05:13:36;;;;;;;24.40;18.48;;;11.40;99.90;;;;;;7378454;19;20015;-60
2023/10/24 05:16:04;;;;;;;21.02;17.50;;;11.40;99.90;;;;;;7374941;19;20553;-61
2023/10/24 05:18:30;;;;;;;21.35;17.55;;;11.40;99.90;;;;;;7377070;19;20023;-61
2023/10/24 05:20:56;;;;;;;20.27;18.27;;;11.50;99.90;;;;;;7377064;19;20336;-61
2023/10/24 05:23:23;;;;;;;18.40;16.50;;;11.40;99.90;;;;;;7374479;19;20074;-61
2023/10/24 05:25:52;;;;;;;20.23;16.63;;;11.40;99.90;;;;;;7372600;19;20014;-61
2023/10/24 05:28:18;;;;;;;19.42;17.25;;;11.30;99.90;;;;;;7372570;19;20109;-61
2023/10/24 05:30:45;;;;;;;17.95;16.08;;;11.40;99.90;;;;;;7374291;19;20024;-61
2023/10/24 05:33:11;;;;;;;17.20;15.40;;;11.40;99.90;;;;;;7374506;19;20026;-66
2023/10/24 05:35:37;;;;;;;19.25;16.35;;;11.40;99.90;;;;;;7373676;19;20461;-61
2023/10/24 05:38:04;;;;;;;22.63;16.35;;;11.40;99.90;;;;;;7374596;19;20384;-63
2023/10/24 05:40:30;;;;;;;20.67;16.38;;;11.40;99.90;;;;;;7370103;19;20031;-63
2023/10/24 05:42:56;;;;;;;25.23;21.20;;;11.30;99.90;;;;;;7372950;19;20018;-70
2023/10/24 05:45:23;;;;;;;16.70;15.00;;;11.30;99.90;;;;;;7370888;19;20891;-70
2023/10/24 05:47:50;;;;;;;20.10;16.98;;;11.30;99.90;;;;;;7375064;19;20041;-70
2023/10/24 05:50:18;;;;;;;18.73;15.93;;;11.30;99.90;;;;;;7374795;19;20014;-70
2023/10/24 05:52:46;;;;;;;19.23;16.05;;;11.30;99.90;;;;;;7375096;19;20765;-70
2023/10/24 05:55:12;;;;;;;24.40;19.33;;;11.30;99.90;;;;;;7373864;19;20010;-70
2023/10/24 05:57:38;;;;;;;18.80;15.38;;;11.20;99.90;;;;;;7374654;19;20832;-70
2023/10/24 06:00:05;;;;;;;20.02;15.90;;;11.20;99.90;;;;;;7373679;19;20498;-70
2023/10/24 06:02:34;;;;;;;20.23;15.73;;;11.20;99.90;;;;;;7373832;19;20385;-72
2023/10/24 06:05:00;;;;;;;19.95;16.35;;;11.20;99.90;;;;;;7373477;19;20078;-70
2023/10/24 06:07:26;;;;;;;16.98;15.23;;;11.20;99.90;;;;;;7374694;19;20022;-71
2023/10/24 06:09:53;;;;;;;16.65;14.38;;;11.20;99.90;;;;;;7372924;19;20042;-70
2023/10/24 06:12:19;;;;;;;16.05;14.30;;;11.20;99.90;;;;;;7373015;19;20019;-71
2023/10/24 06:14:46;;;;;;;17.02;13.55;;;11.20;99.90;;;;;;7371899;19;20018;-70
2023/10/24 06:17:17;;;;;;;17.83;14.00;;;11.20;99.90;;;;;;7375352;19;20014;-71
2023/10/24 06:19:45;;;;;;;21.08;16.60;;;11.20;99.90;;;;;;7374692;19;20022;-70
2023/10/24 06:22:11;;;;;;;17.58;14.50;;;11.20;99.90;;;;;;7371885;19;20026;-71
2023/10/24 06:24:37;;;;;;;16.17;14.25;;;11.20;99.90;;;;;;7372072;19;20014;-71
2023/10/24 06:27:04;;;;;;;16.08;14.10;;;11.20;99.90;;;;;;7377386;19;20018;-71
2023/10/24 06:29:30;;;;;;;15.82;13.95;;;11.20;99.90;;;;;;7375247;19;20106;-70
2023/10/24 06:31:57;;;;;;;17.00;13.73;;;11.20;99.90;;;;;;7374760;19;20757;-64
2023/10/24 06:34:23;;;;;;;17.55;13.90;;;11.20;99.90;;;;;;7372615;19;20093;-64
2023/10/24 06:36:50;;;;;;;15.10;13.23;;;11.20;99.90;;;;;;7375250;19;20489;-63
2023/10/24 06:39:16;;;;;;;14.45;12.95;;;11.20;99.90;;;;;;7372078;19;20014;-64
2023/10/24 06:41:42;;;;;;;15.77;13.18;;;11.20;99.90;;;;;;7374052;19;20401;-70
2023/10/24 06:44:15;;;;;;;15.20;12.98;;;11.20;99.90;;;;;;7369931;19;20022;-70
2023/10/24 06:46:42;;;;;;;15.40;12.95;;;11.20;99.90;;;;;;7374307;19;20060;-65
2023/10/24 06:49:09;;;;;;;14.77;12.13;;;11.20;99.90;;;;;;7372691;19;20025;-69
2023/10/24 06:51:35;;;;;;;15.38;12.48;;;11.20;99.90;;;;;;7370907;19;20026;-64
2023/10/24 06:54:01;;;;;;;15.10;12.57;;;11.20;99.90;;;;;;7381073;19;20011;-64
2023/10/24 06:56:27;;;;;;;15.07;12.18;;;11.20;99.90;;;;;;7379253;19;20018;-63
2023/10/24 06:58:54;;;;;;;14.20;12.52;;;11.20;99.90;;;;;;7379071;19;20492;-63
2023/10/24 07:01:20;;;;;;;15.02;13.18;;;11.20;99.90;;;;;;7382475;19;20053;-63
2023/10/24 07:03:47;;;;;;;16.70;12.82;;;11.20;99.90;;;;;;7377679;19;20022;-70
2023/10/24 07:06:13;;;;;;;14.43;12.75;;;11.20;99.90;;;;;;7379470;19;20756;-69
2023/10/24 07:08:42;;;;;;;17.95;13.88;;;11.30;99.90;;;;;;7376370;19;20018;-69
2023/10/24 07:11:08;;;;;;;17.70;13.15;;;11.20;99.90;;;;;;7378880;19;20026;-69
2023/10/24 07:13:37;;;;;;;15.27;13.68;;;11.30;99.90;;;;;;7377384;19;20496;-69
2023/10/24 07:16:16;;;;;;;16.58;14.00;;;11.30;99.90;;;;;;7378807;19;20033;-70
2023/10/24 07:18:43;;;;;;;20.08;14.35;;;11.30;99.90;;;;;;7379542;19;20930;-69
2023/10/24 07:21:10;;;;;;;17.33;14.90;;;11.30;99.90;;;;;;7377610;19;20060;-70
2023/10/24 07:23:36;;;;;;;17.80;14.40;;;11.30;99.90;;;;;;7377421;19;20064;-69
2023/10/24 07:26:03;;;;;;;14.90;13.20;;;11.30;99.90;;;;;;7379057;19;20558;-71
2023/10/24 07:28:29;;;;;;;16.15;13.07;;;11.40;99.90;;;;;;7377082;19;20023;-71
2023/10/24 07:30:56;;;;;;;14.07;12.15;;;11.40;99.90;;;;;;7380165;19;20019;-68
2023/10/24 07:33:23;;;;;;;14.45;12.23;;;11.40;99.90;;;;;;7377961;19;20014;-65
2023/10/24 07:35:50;;;;;;;16.70;13.10;;;11.40;99.90;;;;;;7376470;19;20022;-66
2023/10/24 07:38:19;;;;;;;15.93;12.82;;;11.40;99.90;;;;;;7375401;19;20018;-66
2023/10/24 07:40:48;;;;;;;17.65;12.77;;;11.50;99.90;;;;;;7380069;19;20394;-66
2023/10/24 07:43:14;;;;;;;17.95;12.75;;;11.50;99.90;;;;;;7376201;19;20011;-66
2023/10/24 07:45:41;;;;;;;15.77;13.13;;;11.40;99.90;;;;;;7374960;19;20029;-68
2023/10/24 07:48:08;;;;;;;18.63;13.85;;;11.50;99.90;;;;;;7377218;19;20010;-65
2023/10/24 07:50:34;;;;;;;16.15;12.93;;;11.50;99.90;;;;;;7376692;19;20466;-65
2023/10/24 07:53:00;;;;;;;18.60;13.98;;;11.50;99.90;;;;;;7377712;19;20018;-65
2023/10/24 07:55:27;;;;;;;18.33;13.32;;;11.40;99.90;;;;;;7377113;19;20037;-65
2023/10/24 07:57:54;;;;;;;48.55;41.92;;;11.40;99.90;;;;;;7377847;19;20412;-65
2023/10/24 08:00:20;;;;;;;17.98;13.48;;;11.40;99.90;;;;;;7378102;19;20041;-65
2023/10/24 08:02:46;;;;;;;15.35;12.98;;;11.40;99.90;;;;;;7377741;19;20074;-71
2023/10/24 08:05:13;;;;;;;17.90;13.38;;;11.40;99.90;;;;;;7374152;19;20090;-70
2023/10/24 08:07:39;;;;;;;18.48;13.45;;;11.40;99.90;;;;;;7375172;19;20389;-71
2023/10/24 08:10:05;;;;;;;15.80;11.90;;;11.40;99.90;;;;;;7378770;19;20010;-71
2023/10/24 08:12:31;;;;;;;16.75;13.00;;;11.40;99.90;;;;;;7373630;19;20837;-70
2023/10/24 08:14:58;;;;;;;19.42;14.40;;;11.50;99.90;;;;;;7378411;19;20014;-70
2023/10/24 08:17:24;;;;;;;17.98;13.35;;;11.50;99.90;;;;;;7377709;19;20018;-70
2023/10/24 08:19:51;;;;;;;16.38;12.93;;;11.50;99.90;;;;;;7375205;19;20061;-70
2023/10/24 08:22:17;;;;;;;16.85;13.45;;;11.50;99.90;;;;;;7377241;19;20044;-71
2023/10/24 08:24:43;;;;;;;23.83;15.85;;;11.50;99.90;;;;;;7373012;19;20023;-71
2023/10/24 08:27:11;;;;;;;18.30;14.45;;;11.50;99.90;;;;;;7375946;19;20011;-71
2023/10/24 08:29:37;;;;;;;18.83;14.57;;;11.50;99.90;;;;;;7376056;19;20018;-71
2023/10/24 08:32:03;;;;;;;18.30;14.70;;;11.60;99.90;;;;;;7376459;19;20653;-66
2023/10/24 08:34:30;;;;;;;20.58;14.68;;;11.60;99.90;;;;;;7373897;19;20037;-70
2023/10/24 08:36:56;;;;;;;20.35;15.13;;;11.60;99.90;;;;;;7373524;19;20018;-65
2023/10/24 08:39:23;;;;;;;19.70;15.30;;;11.60;99.90;;;;;;7376298;19;20079;-65
2023/10/24 08:41:53;;;;;;;17.10;13.40;;;11.70;99.90;;;;;;7371395;19;20094;-65
2023/10/24 08:44:20;;;;;;;16.75;13.98;;;11.70;99.90;;;;;;7373008;19;20018;-65
2023/10/24 08:46:54;;;;;;;17.10;12.95;;;11.70;99.90;;;;;;7373514;19;20632;-65
2023/10/24 08:49:20;;;;;;;17.30;14.05;;;11.80;99.90;;;;;;7372645;19;20585;-70
2023/10/24 08:51:47;;;;;;;16.10;13.57;;;11.80;99.90;;;;;;7374855;19;20086;-71
2023/10/24 08:54:13;;;;;;;16.95;13.52;;;11.80;99.90;;;;;;7377799;19;20018;-70
2023/10/24 08:56:41;;;;;;;16.75;13.77;;;11.80;99.90;;;;;;7373654;19;20015;-70
2023/10/24 08:59:09;;;;;;;15.77;13.40;;;11.80;99.90;;;;;;7377429;19;20018;-70
2023/10/24 09:01:36;;;;;;;17.80;13.80;;;11.70;99.90;;;;;;7375756;19;20123;-70
2023/10/24 09:04:03;;;;;;;15.70;13.38;;;11.70;99.90;;;;;;7375274;19;20011;-70
2023/10/24 09:06:34;;;;;;;16.95;13.23;;;11.70;99.90;;;;;;7368933;19;20541;-70
2023/10/24 09:09:00;;;;;;;17.05;13.65;;;11.70;99.90;;;;;;7375245;19;20022;-70
2023/10/24 09:11:56;;;;;;;17.02;14.40;;;11.70;99.90;;;;;;7372035;19;20486;-70
2023/10/24 09:14:24;;;;;;;15.68;12.82;;;11.60;99.90;;;;;;7377704;19;20017;-70
2023/10/24 09:17:05;;;;;;;18.00;15.43;;;11.60;99.90;;;;;;7375732;19;20019;-70
2023/10/24 09:19:32;;;;;;;16.05;13.30;;;11.50;99.90;;;;;;7375741;19;20014;-70
2023/10/24 09:21:59;;;;;;;14.38;12.88;;;11.60;99.90;;;;;;7374881;19;20021;-70
2023/10/24 09:24:26;;;;;;;15.70;12.68;;;11.50;99.90;;;;;;7371609;19;20022;-70
2023/10/24 09:26:56;;;;;;;13.77;11.38;;;11.50;99.90;;;;;;7375416;19;20596;-70
2023/10/24 09:29:29;;;;;;;15.60;12.27;;;11.60;99.90;;;;;;7375597;19;20780;-70
2023/10/24 09:31:59;;;;;;;15.88;12.25;;;11.60;99.90;;;;;;7374989;19;20674;-65
2023/10/24 09:34:26;;;;;;;19.70;16.40;;;11.60;99.90;;;;;;7372539;19;20204;-65
2023/10/24 09:36:53;;;;;;;13.85;12.18;;;11.70;99.90;;;;;;7375107;19;20111;-70
2023/10/24 09:39:20;;;;;;;22.35;18.98;;;11.80;99.90;;;;;;7374814;19;20018;-70
2023/10/24 09:41:50;;;;;;;14.90;12.05;;;11.90;99.90;;;;;;7374286;19;20022;-69
2023/10/24 09:44:17;;;;;;;12.70;11.35;;;11.90;99.90;;;;;;7370640;19;20021;-68
2023/10/24 09:46:59;;;;;;;13.20;11.38;;;11.90;99.90;;;;;;7365416;19;20089;-65
2023/10/24 09:49:26;;;;;;;12.38;11.07;;;11.80;99.90;;;;;;7374389;19;20022;-67
2023/10/24 09:51:53;;;;;;;14.05;11.45;;;11.80;99.90;;;;;;7371544;19;20018;-64
2023/10/24 09:54:20;;;;;;;13.68;11.82;;;11.80;99.90;;;;;;7372630;19;20014;-63
2023/10/24 09:56:48;;;;;;;14.73;11.30;;;11.90;99.90;;;;;;7372073;19;20041;-69
2023/10/24 09:59:14;;;;;;;12.73;11.43;;;11.90;99.90;;;;;;7373751;19;20801;-63
2023/10/24 10:01:41;;;;;;;13.43;11.52;;;11.90;99.90;;;;;;7371247;19;20113;-64
2023/10/24 10:04:08;;;;;;;11.85;10.63;;;11.90;99.90;;;;;;7374063;19;20018;-63
2023/10/24 10:06:35;;;;;;;11.50;9.77;;;11.80;99.90;;;;;;7372778;19;20494;-63
2023/10/24 10:09:03;;;;;;;11.63;10.15;;;11.90;99.90;;;;;;7374866;19;20025;-64
2023/10/24 10:11:32;;;;;;;13.32;10.57;;;11.90;99.90;;;;;;7373324;19;20018;-65
2023/10/24 10:14:11;;;;;;;12.88;10.73;;;11.90;99.90;;;;;;7375974;19;20015;-63
2023/10/24 10:17:02;;;;;;;12.45;11.13;;;11.90;99.90;;;;;;7372735;19;20015;-69
2023/10/24 10:19:46;;;;;;;12.40;10.82;;;11.90;99.90;;;;;;7371994;19;20014;-64
2023/10/24 10:22:25;;;;;;;26.65;23.30;;;12.00;99.90;;;;;;7373487;19;20018;-69
2023/10/24 10:25:15;;;;;;;11.82;9.93;;;12.00;99.90;;;;;;7372743;19;20018;-65
2023/10/24 10:28:00;;;;;;;11.32;10.07;;;12.00;99.90;;;;;;7375229;19;20022;-69
2023/10/24 10:30:44;;;;;;;13.48;10.40;;;12.00;99.90;;;;;;7379628;19;20027;-69
2023/10/24 10:33:16;;;;;;;12.65;10.52;;;12.00;99.90;;;;;;7384134;19;20014;-64
2023/10/24 10:36:04;;;;;;;11.85;10.65;;;12.20;99.90;;;;;;7377193;19;20018;-69
2023/10/24 10:38:43;;;;;;;13.10;10.85;;;12.20;99.90;;;;;;7380507;19;20129;-64
2023/10/24 10:41:22;;;;;;;21.83;18.20;;;12.40;99.90;;;;;;7378366;19;20054;-70
2023/10/24 10:43:53;;;;;;;15.98;11.13;;;12.50;99.90;;;;;;7376781;19;20019;-64
2023/10/24 10:46:27;;;;;;;10.75;9.10;;;12.60;99.90;;;;;;7379458;19;20581;-70
2023/10/24 10:49:06;;;;;;;12.35;11.05;;;12.60;99.90;;;;;;7379941;19;20428;-63
2023/10/24 10:51:35;;;;;;;11.73;10.52;;;12.70;99.90;;;;;;7375789;19;20414;-64
2023/10/24 10:54:17;;;;;;;13.25;11.73;;;12.70;99.90;;;;;;7378738;19;20019;-63
2023/10/24 10:56:47;;;;;;;12.93;11.07;;;12.80;99.90;;;;;;7380056;19;20015;-63
2023/10/24 10:59:39;;;;;;;17.10;14.85;;;12.80;99.90;;;;;;7378448;19;20018;-64
2023/10/24 11:02:29;;;;;;;12.65;10.82;;;12.90;99.90;;;;;;7379853;19;20018;-63
2023/10/24 11:04:56;;;;;;;12.30;11.00;;;13.00;99.90;;;;;;7376472;19;20014;-70
2023/10/24 11:07:50;;;;;;;11.60;10.38;;;13.00;99.90;;;;;;7381083;19;20025;-70
2023/10/24 11:10:18;;;;;;;15.32;12.30;;;13.00;99.90;;;;;;7383512;19;20018;-70
2023/10/24 11:12:48;;;;;;;12.75;11.45;;;13.00;99.90;;;;;;7376600;19;20086;-63
2023/10/24 11:15:16;;;;;;;13.32;11.75;;;13.00;99.90;;;;;;7377637;19;20042;-63
2023/10/24 11:17:43;;;;;;;12.65;11.32;;;13.00;99.90;;;;;;7378804;19;20208;-62
2023/10/24 11:20:10;;;;;;;13.38;11.50;;;12.90;99.90;;;;;;7380669;19;20494;-70
2023/10/24 11:22:38;;;;;;;14.55;11.80;;;12.90;99.90;;;;;;7379341;19;20082;-70
2023/10/24 11:25:09;;;;;;;15.85;12.05;;;12.90;99.90;;;;;;7377374;19;20018;-70
2023/10/24 11:27:35;;;;;;;20.48;18.30;;;12.90;99.90;;;;;;7376166;19;20033;-70
2023/10/24 11:30:01;;;;;;;13.23;11.93;;;12.90;99.90;;;;;;7381352;19;20019;-70
2023/10/24 11:32:28;;;;;;;12.93;11.57;;;12.90;99.90;;;;;;7378305;19;20987;-70
2023/10/24 11:34:55;;;;;;;12.30;10.98;;;12.80;99.90;;;;;;7379408;19;20022;-70
2023/10/24 11:37:22;;;;;;;14.52;12.50;;;12.80;99.90;;;;;;7377421;19;20395;-70
2023/10/24 11:39:49;;;;;;;15.07;13.60;;;12.70;99.90;;;;;;7381214;19;20658;-66
2023/10/24 11:42:16;;;;;;;12.52;11.32;;;12.70;99.90;;;;;;7380270;19;20449;-68
2023/10/24 11:44:42;;;;;;;13.40;11.57;;;12.70;99.90;;;;;;7376656;19;20078;-64
2023/10/24 11:47:15;;;;;;;12.98;11.57;;;12.60;99.90;;;;;;7377697;19;20761;-64
2023/10/24 11:49:45;;;;;;;14.38;12.13;;;12.60;99.90;;;;;;7376165;19;20023;-63
2023/10/24 11:52:11;;;;;;;13.43;12.02;;;12.60;99.90;;;;;;7375119;19;20026;-63
2023/10/24 11:54:39;;;;;;;21.13;18.90;;;12.70;99.90;;;;;;7372378;19;20028;-63
2023/10/24 11:57:06;;;;;;;13.77;12.35;;;13.10;99.90;;;;;;7378280;19;20100;-68
2023/10/24 11:59:36;;;;;;;13.68;12.32;;;13.60;99.90;;;;;;7377199;19;20018;-68
2023/10/24 12:02:03;;;;;;;13.38;11.95;;;13.90;99.90;;;;;;7378537;19;20018;-68
2023/10/24 12:04:34;;;;;;;11.88;10.68;;;14.20;99.90;;;;;;7375283;19;20070;-63
2023/10/24 12:07:05;;;;;;;14.07;12.52;;;14.40;99.90;;;;;;7378443;19;20049;-64
2023/10/24 12:09:33;;;;;;;12.15;10.25;;;14.30;99.90;;;;;;7372219;19;20018;-64
2023/10/24 12:12:01;;;;;;;12.65;11.05;;;14.30;99.90;;;;;;7374433;19;20570;-64
2023/10/24 12:14:28;;;;;;;11.73;10.63;;;14.20;99.90;;;;;;7375412;19;20031;-64
2023/10/24 12:16:58;;;;;;;11.70;10.52;;;14.10;99.90;;;;;;7377748;19;20010;-68
2023/10/24 12:19:24;;;;;;;11.63;10.43;;;14.00;99.90;;;;;;7377295;19;20465;-68
2023/10/24 12:21:51;;;;;;;12.60;11.25;;;13.80;99.90;;;;;;7378060;19;20041;-68
2023/10/24 12:24:18;;;;;;;14.15;12.55;;;13.60;99.90;;;;;;7373291;19;20062;-67
2023/10/24 12:26:45;;;;;;;13.48;12.18;;;13.50;99.90;;;;;;7379258;19;20022;-68
2023/10/24 12:29:11;;;;;;;13.98;12.40;;;13.40;99.90;;;;;;7378100;19;20046;-68
2023/10/24 12:31:41;;;;;;;14.10;11.93;;;13.30;99.90;;;;;;7374832;19;20026;-63